Terminal Aerodrome Forecast
Issued by NWS

Home | Current Version | Previous Version | Text Only | Print | Product List | Glossary On
Versions: 1 2 3 4 5 6 7 8 9 10 11 12 13 14 15 16 17 18 19 20 21 22 23 24 25 26
536
FTUS45 KGGW 152334
TAFOLF
TAF
KOLF 152334Z 1600/1624 10010KT P6SM SCT120
     FM160400 08012KT P6SM SCT250 WS020/15035KT
     FM161000 08010KT P6SM BKN150
     FM161930 22007KT P6SM SCT120=

USA.gov is the U.S. government's official web portal to all federal, state and local government web resources and services.